NCAR-RAP Real-Time Weather Data

Output produced by METARs form (10 April 2020  07:22 UTC)
found at http://weather.rap.ucar.edu/surface/
 
KCOU 100654Z AUTO 33007KT 10SM CLR 01/M07 A3018 RMK AO2 SLP221 T00111067
KCOU 100554Z AUTO 33008KT 10SM CLR 02/M07 A3017 RMK AO2 SLP217 T00171072 10122 20017 401560017 52021
KCOU 100454Z AUTO 35011KT 10SM CLR 04/M08 A3014 RMK AO2 SLP209 T00391083
KCOU 100354Z AUTO 34011KT 10SM CLR 04/M09 A3013 RMK AO2 PK WND 35028/0315 SLP204 T00441089
KCOU 100254Z AUTO 35015G23KT 10SM CLR 06/M08 A3010 RMK AO2 PK WND 34028/0222 SLP196 T00561078 53042
KCOU 100154Z 34016G26KT 10SM CLR 08/M07 A3007 RMK AO2 PK WND 34027/0105 SLP183 T00781067
KCOU 100054Z 35018G29KT 10SM CLR 10/M07 A3001 RMK AO2 PK WND 32034/0000 SLP163 T01001067
KCOU 092354Z 32020G32KT 10SM CLR 12/M07 A2998 RMK AO2 PK WND 32038/2259 SLP152 T01221067 10156 20122 53009
KCOU 092254Z 31022G34KT 10SM CLR 14/M07 A2995 RMK AO2 PK WND 32042/2208 SLP142 T01391072
KCOU 092154Z 29014G29KT 10SM CLR 15/M06 A2994 RMK AO2 PK WND 29039/2132 SLP138 T01501056
KCOU 092054Z 29016G31KT 10SM CLR 15/M06 A2995 RMK AO2 PK WND 27033/2024 SLP141 T01501056 58013
KCOU 091954Z 30021G33KT 10SM CLR 15/M06 A2997 RMK AO2 PK WND 28033/1948 SLP149 T01501056
KCOU 091854Z 31021G30KT 10SM CLR 14/M06 A2999 RMK AO2 PK WND 32039/1828 SLP154 T01441061
KCOU 091754Z 30016G30KT 10SM BKN120 14/M06 A2999 RMK AO2 PK WND 28033/1714 SLP153 T01441061 10156 20061 58007
KCOU 091654Z 30019G30KT 10SM BKN120 13/M07 A3000 RMK AO2 PK WND 32031/1604 SLP158 T01331067
KCOU 091554Z 30016G24KT 10SM CLR 13/M06 A3002 RMK AO2 PK WND 32027/1535 SLP163 T01281061
KCOU 091454Z 32013G20KT 10SM CLR 12/M04 A3001 RMK AO2 SLP161 T01171039 50000
KCOU 091354Z 31010KT 10SM CLR 11/M01 A3003 RMK AO2 SLP168 T01061006
KCOU 091254Z 28006KT 10SM CLR 08/01 A3003 RMK AO2 SLP168 T00780006
KCOU 091154Z 28007KT 10SM CLR 06/01 A3001 RMK AO2 SLP161 T00610006 10111 20056 53004
KCOU 091054Z AUTO 28005KT 10SM CLR 07/01 A2999 RMK AO2 SLP151 T00670011
KCOU 090954Z AUTO 33007KT 10SM CLR 07/01 A2999 RMK AO2 SLP149 T00670006
KCOU 090854Z AUTO 34008KT 10SM CLR 08/01 A3000 RMK AO2 SLP153 T00830011 51014